Kennebunk, Maine
Current Conditions -  °F | °C
As of 4:35 PM on Wednesday 26 Nov 2014 (Local Time) from KSFM Reporting Station
Overcast Overcast  
Wind Chill: 20°   Ceiling: 500
Heat Index: 32°   Visibility: 1.7mi
Dew Point: 27°   Wind: 21mph
Humidity: 80%   Direction: 20°NNE
Pressure: 29.97"   Gusts: 26mph
Location:  43.38°N, 70.54°W
Report Text: KSFM 262135Z AUTO 02018G23KT 1 3/4SM OVC005 00/M03 A2997 RMK AO1
Loading
Personal Weather Stations






























Interactive Weather Map New forecast layout! Learn more

10-Day Weather Forecast

Advertisements
Track Severe Weather on mobile